Weather reports worldwide

Advertisment
Vejer De La Frontera, Spain (8457): temperature & dewpoint: 13.03.2019 10:00:00 - 19.03.2019 10:00:00 (CET)Vejer De La Frontera, Spain (8457): wind speed & gusts: 13.03.2019 10:00:00 - 19.03.2019 10:00:00 (CET)Vejer De La Frontera, Spain (8457): wind direction: 13.03.2019 10:00:00 - 19.03.2019 10:00:00 (CET)Vejer De La Frontera, Spain (8457): precipitation: 13.03.2019 10:00:00 - 19.03.2019 10:00:00 (CET)
Date & Time tt [°C] td [°C] ff [km/h] ff [kn] fx [km/h] fx [kn] dd rr [mm]
19.03.2019 10:00:00 - - - - - - - -
19.03.2019 09:00:00 13,5 11,6 7 4 16 9 ENE 0,0
19.03.2019 08:00:00 12,2 10,8 7 4 18 10 ENE 0,0
19.03.2019 07:00:00 12,1 10,6 7 4 22 12 ENE -
19.03.2019 06:00:00 12,3 10,8 9 5 23 12 ENE 0,0
19.03.2019 05:00:00 12,3 10,8 8 5 22 12 ENE 0,0
19.03.2019 04:00:00 12,4 10,6 9 5 23 12 E 0,0
19.03.2019 03:00:00 12,4 10,6 10 5 23 13 ENE 0,0
19.03.2019 02:00:00 12,7 10,8 10 5 24 13 E 0,0
19.03.2019 01:00:00 13,0 10,8 10 6 25 14 ENE -
19.03.2019 00:00:00 12,9 11,0 10 5 25 14 E 0,0
18.03.2019 23:00:00 13,3 11,0 9 5 26 14 E 0,0
18.03.2019 22:00:00 13,7 11,0 10 5 27 15 E 0,0
18.03.2019 21:00:00 14,0 10,6 6 3 17 9 ENE 0,0
18.03.2019 20:00:00 14,7 10,8 5 3 11 6 E 0,0
18.03.2019 19:00:00 16,2 10,8 3 1 14 8 W -
18.03.2019 18:00:00 18,1 11,2 8 4 16 9 W 0,0
18.03.2019 17:00:00 19,5 11,6 9 5 18 10 WSW 0,0
18.03.2019 16:00:00 19,3 11,1 9 5 22 12 W 0,0
18.03.2019 15:00:00 19,5 11,2 12 6 25 14 WSW 0,0
18.03.2019 14:00:00 19,1 11,1 13 7 22 12 WSW 0,0
18.03.2019 13:00:00 19,7 10,2 3 2 11 6 WNW -
18.03.2019 12:00:00 18,1 10,2 5 3 11 6 WNW 0,0
18.03.2019 11:00:00 16,1 9,6 3 2 13 7 N 0,0
18.03.2019 10:00:00 14,3 9,6 6 3 14 8 NNW 0,0
18.03.2019 09:00:00 12,2 9,0 5 3 17 9 NNW 0,0
18.03.2019 08:00:00 11,6 8,7 9 5 18 10 NW 0,0
18.03.2019 07:00:00 11,8 8,3 7 4 20 11 NNW -
18.03.2019 06:00:00 12,1 8,4 8 4 20 11 NW 0,0
18.03.2019 05:00:00 12,8 8,7 6 3 18 10 NW 0,0
18.03.2019 04:00:00 12,8 8,5 8 4 18 10 NW 0,0
18.03.2019 03:00:00 13,3 8,5 9 5 25 14 NW 0,0
18.03.2019 02:00:00 13,7 9,2 8 5 16 9 WNW 0,0
18.03.2019 01:00:00 14,2 10,4 10 6 20 11 WNW -
18.03.2019 00:00:00 14,0 11,1 11 6 18 10 W 0,0
17.03.2019 23:00:00 14,2 10,2 6 4 20 11 W 0,0
17.03.2019 22:00:00 15,2 9,3 10 6 22 12 WNW 0,0
17.03.2019 21:00:00 15,8 8,0 10 6 23 12 WNW 0,0
17.03.2019 20:00:00 16,5 7,1 10 5 18 10 WNW 0,0
17.03.2019 19:00:00 18,1 7,6 11 6 19 10 W -
17.03.2019 18:00:00 20,5 9,7 11 6 23 12 W 0,0
17.03.2019 17:00:00 23,0 9,4 9 5 22 12 WNW 0,0
17.03.2019 16:00:00 23,3 11,3 8 4 18 10 WNW 0,0
17.03.2019 15:00:00 23,1 12,1 7 4 24 13 W 0,0
17.03.2019 14:00:00 22,5 11,2 10 5 22 12 WSW 0,0
17.03.2019 13:00:00 20,8 10,3 3 2 13 7 NW -
17.03.2019 12:00:00 17,6 11,0 4 2 10 6 NW 0,0
17.03.2019 11:00:00 14,0 10,4 4 2 17 9 WNW 0,0
17.03.2019 10:00:00 13,3 10,5 6 3 12 6 W 0,0
17.03.2019 09:00:00 12,4 10,2 1 1 6 3 NNW 0,0
17.03.2019 08:00:00 11,0 8,9 3 2 6 4 WNW 0,0
17.03.2019 07:00:00 10,9 9,4 4 2 6 3 NW -
17.03.2019 06:00:00 11,7 9,9 0 0 5 3 NW 0,0
17.03.2019 05:00:00 13,0 9,0 5 3 14 8 WNW 0,0
17.03.2019 04:00:00 12,2 8,1 1 1 10 5 WNW 0,0
17.03.2019 03:00:00 12,7 9,2 6 3 10 6 WNW 0,0
17.03.2019 02:00:00 13,9 8,3 4 2 10 5 NW 0,0
17.03.2019 01:00:00 14,4 8,1 4 2 11 6 WNW -
17.03.2019 00:00:00 14,0 10,4 6 3 12 7 W 0,0
16.03.2019 23:00:00 14,3 10,9 6 4 12 7 W 0,0
16.03.2019 22:00:00 15,1 7,6 5 3 8 5 W 0,0
16.03.2019 21:00:00 17,1 1,9 4 2 10 6 WSW 0,0
16.03.2019 20:00:00 17,6 1,9 7 4 11 6 SSW 0,0
16.03.2019 19:00:00 19,3 3,4 4 2 11 6 SW -
16.03.2019 18:00:00 21,0 3,6 7 4 17 9 SSW 0,0
16.03.2019 17:00:00 23,0 5,0 10 6 18 10 S 0,0
16.03.2019 16:00:00 23,6 5,5 9 5 23 12 S 0,0
16.03.2019 15:00:00 23,9 5,8 11 6 21 12 SSE 0,0
16.03.2019 14:00:00 23,9 5,8 11 6 26 14 SSE 0,0
16.03.2019 13:00:00 23,4 6,2 11 6 22 12 SE -
16.03.2019 12:00:00 23,6 5,9 9 5 25 13 E 0,0
16.03.2019 11:00:00 21,7 4,3 11 6 22 12 E 0,0
16.03.2019 10:00:00 19,3 2,1 9 5 20 11 E 0,0
16.03.2019 09:00:00 16,2 0,2 8 4 22 12 E 0,0
16.03.2019 08:00:00 14,6 -1,2 7 4 16 9 ENE 0,0
16.03.2019 07:00:00 14,8 -1,0 8 4 21 11 E -
16.03.2019 06:00:00 14,7 -1,0 9 5 21 11 E 0,0
16.03.2019 05:00:00 14,0 -1,0 9 5 20 11 E 0,0
16.03.2019 04:00:00 14,0 -1,0 10 5 23 12 E 0,0
16.03.2019 03:00:00 14,3 0,2 9 5 21 11 ENE 0,0
16.03.2019 02:00:00 14,1 1,1 10 5 22 12 E 0,0
16.03.2019 01:00:00 13,7 0,6 11 6 24 13 E -
16.03.2019 00:00:00 13,7 1,3 11 6 26 14 E 0,0
15.03.2019 23:00:00 14,8 1,7 11 6 25 13 ENE 0,0
15.03.2019 22:00:00 15,0 0,0 8 5 25 13 E 0,0
15.03.2019 21:00:00 15,3 0,2 11 6 22 12 E 0,0
15.03.2019 20:00:00 16,2 0,6 10 5 21 12 E 0,0
15.03.2019 19:00:00 18,2 1,3 9 5 27 15 E -
15.03.2019 18:00:00 20,2 2,1 12 6 32 17 E 0,0
15.03.2019 17:00:00 21,5 3,2 13 7 35 19 E 0,0
15.03.2019 16:00:00 21,8 4,3 13 7 42 23 E 0,0
15.03.2019 15:00:00 21,5 5,5 22 12 44 24 E 0,0
15.03.2019 14:00:00 20,9 5,6 18 10 45 24 E 0,0
15.03.2019 13:00:00 20,6 6,8 18 10 42 23 E -
15.03.2019 12:00:00 19,8 7,1 15 8 36 19 E 0,0
15.03.2019 11:00:00 18,4 7,1 14 7 30 16 E 0,0
15.03.2019 10:00:00 16,3 7,3 13 7 31 17 E 0,0
15.03.2019 09:00:00 13,7 5,8 11 6 24 13 E 0,0
15.03.2019 08:00:00 12,1 4,8 11 6 26 14 E 0,0
15.03.2019 07:00:00 11,5 5,6 10 5 21 11 ENE -
15.03.2019 06:00:00 11,7 6,4 12 6 29 16 E 0,0
15.03.2019 05:00:00 11,2 7,8 11 6 22 12 ENE 0,0
15.03.2019 04:00:00 11,1 9,3 11 6 22 12 ENE 0,0
15.03.2019 03:00:00 11,1 9,3 10 5 20 11 ENE 0,0
15.03.2019 02:00:00 11,4 9,7 10 5 22 12 ENE 0,0
15.03.2019 01:00:00 11,8 9,7 7 4 23 12 ENE -
15.03.2019 00:00:00 12,0 9,6 8 5 26 14 E 0,0
14.03.2019 23:00:00 12,4 9,6 9 5 20 11 E 0,0
14.03.2019 22:00:00 13,4 8,4 7 4 22 12 ENE 0,0
14.03.2019 21:00:00 14,0 8,1 9 5 23 12 ENE 0,0
14.03.2019 20:00:00 14,5 7,7 11 6 26 14 E 0,0
14.03.2019 19:00:00 16,1 5,6 10 5 34 18 E -
14.03.2019 18:00:00 17,8 5,3 14 8 36 20 E 0,0
14.03.2019 17:00:00 19,3 6,7 14 7 36 19 E 0,0
14.03.2019 16:00:00 20,2 7,8 14 8 40 21 E 0,0
14.03.2019 15:00:00 19,8 8,1 16 9 41 22 E 0,0
14.03.2019 14:00:00 19,8 10,2 15 8 42 23 E 0,0
14.03.2019 13:00:00 19,1 10,2 17 9 42 23 E -
14.03.2019 12:00:00 18,5 10,0 15 8 37 20 E 0,0
14.03.2019 11:00:00 16,2 9,6 13 7 29 16 ENE 0,0
14.03.2019 10:00:00 15,8 9,7 12 6 28 15 ENE 0,0
14.03.2019 09:00:00 13,9 9,9 11 6 26 14 ENE 0,0
14.03.2019 08:00:00 12,2 9,8 8 5 23 13 ENE 0,0
14.03.2019 07:00:00 11,8 9,9 8 5 22 12 E -
14.03.2019 06:00:00 11,8 9,9 9 5 22 12 E 0,0
14.03.2019 05:00:00 12,0 10,0 8 5 18 10 ENE 0,0
14.03.2019 04:00:00 10,6 9,2 6 3 13 7 ENE 0,0
14.03.2019 03:00:00 10,3 8,8 4 2 7 4 ENE 0,0
14.03.2019 02:00:00 11,7 10,4 3 2 9 5 SSE 0,0
14.03.2019 01:00:00 12,4 11,0 5 3 10 5 S -
14.03.2019 00:00:00 12,6 9,6 3 2 6 3 WNW 0,0
13.03.2019 23:00:00 13,2 6,5 3 1 4 2 WNW 0,0
13.03.2019 22:00:00 13,7 6,2 2 1 20 11 WNW 0,0
13.03.2019 21:00:00 14,3 6,1 11 6 21 12 W 0,0
13.03.2019 20:00:00 14,2 6,5 11 6 27 15 W 0,0
13.03.2019 19:00:00 14,6 8,5 14 8 28 15 WSW -
13.03.2019 18:00:00 16,5 8,9 16 9 28 15 WSW 0,0
13.03.2019 17:00:00 17,2 9,3 14 8 30 16 W 0,0
13.03.2019 16:00:00 17,6 9,7 16 9 31 17 W 0,0
13.03.2019 15:00:00 - - - - - - - -
13.03.2019 14:00:00 17,9 10,0 17 9 34 18 W 0,0
13.03.2019 13:00:00 17,5 8,7 11 6 23 12 WNW -
13.03.2019 12:00:00 16,0 9,2 11 6 22 12 WNW 0,0
13.03.2019 11:00:00 14,4 8,5 11 6 22 12 WNW 0,0
13.03.2019 10:00:00 12,6 8,5 8 5 20 11 NW 0,0

tt = temperature
td = dewpoint
ff = wind speed
fx = gusts
dd = wind direction
rr = precipitation

Next stations